Eastry, United Kingdom
Current Conditions -  °F | °C
As of 11:20 AM on Thursday 18 Dec 2014 (Local Time) from EGMD Reporting Station
Broken Clouds Broken Clouds  
Wind Chill: 13°   Ceiling: 700
Heat Index: 13°   Visibility: 6mi
Dew Point: 12°   Wind: 32mph
Humidity: 94%   Direction: 250°WSW
Pressure: 29.91"   Gusts: NA
Location:  51.25°N, 1.31°E
Report Text: EGMD 181120Z 25028KT 9999 BKN007 13/12 Q1013
Loading
Personal Weather Stations






























Interactive Weather Map New forecast layout! Learn more

10-Day Weather Forecast

Advertisements
Track Severe Weather on mobile